createdAt,value
2023-03-24T00:00:11.895Z,99781.03
2023-03-24T00:03:17.097Z,99780.16
2023-03-24T00:06:22.490Z,99775.97
2023-03-24T00:09:26.838Z,99775.56
2023-03-24T00:12:29.583Z,99772.75
2023-03-24T00:15:33.723Z,99771.50
2023-03-24T00:18:36.938Z,99769.53
2023-03-24T00:21:41.969Z,99762.25
2023-03-24T00:24:46.579Z,99757.75
2023-03-24T00:27:49.964Z,99751.38
2023-03-24T00:30:53.177Z,99742.50
2023-03-24T00:33:56.085Z,99740.53
2023-03-24T00:36:58.953Z,99738.50
2023-03-24T00:40:06.883Z,99736.66
2023-03-24T00:43:09.710Z,99728.06
2023-03-24T00:46:27.218Z,99724.06
2023-03-24T00:49:43.050Z,99732.91
2023-03-24T00:52:48.084Z,99724.75
2023-03-24T00:55:52.744Z,99712.59
2023-03-24T00:58:57.809Z,99706.06
2023-03-24T01:02:00.852Z,99707.03
2023-03-24T01:05:03.846Z,99698.00
2023-03-24T01:08:07.377Z,99693.25
2023-03-24T01:11:12.838Z,99690.69
2023-03-24T01:14:16.091Z,99696.53
2023-03-24T01:17:19.783Z,99685.00
2023-03-24T01:20:24.149Z,99673.22
2023-03-24T01:23:27.214Z,99669.25
2023-03-24T01:26:31.435Z,99670.03
2023-03-24T01:29:34.344Z,99657.69
2023-03-24T01:32:37.377Z,99651.47
2023-03-24T01:35:40.288Z,99647.47
2023-03-24T01:38:43.069Z,99637.72
2023-03-24T01:41:47.652Z,99628.31
2023-03-24T01:44:52.258Z,99626.22
2023-03-24T01:47:55.637Z,99619.94
2023-03-24T01:51:02.683Z,99617.03
2023-03-24T01:54:08.597Z,99614.34
2023-03-24T01:57:18.595Z,99609.50
2023-03-24T02:00:22.053Z,99587.63
2023-03-24T02:03:30.079Z,99580.25
2023-03-24T02:06:35.655Z,99584.13
2023-03-24T02:09:38.565Z,99576.09
2023-03-24T02:12:43.611Z,99573.72
2023-03-24T02:16:14.699Z,99567.75
2023-03-24T02:20:02.264Z,99552.69
2023-03-24T02:23:42.206Z,99541.53
2023-03-24T02:27:02.072Z,99543.28
2023-03-24T02:30:29.619Z,99531.63
2023-03-24T02:34:02.288Z,99525.03
2023-03-24T02:37:37.385Z,99524.56
2023-03-24T02:40:48.150Z,99517.63
2023-03-24T02:44:00.672Z,99510.41
2023-03-24T02:47:11.508Z,99507.78
2023-03-24T02:50:24.607Z,99510.06
2023-03-24T02:53:33.135Z,99501.16
2023-03-24T02:56:42.683Z,99498.03
2023-03-24T02:59:51.693Z,99492.91
2023-03-24T03:03:00.690Z,99483.03
2023-03-24T03:06:10.482Z,99474.44
2023-03-24T03:09:17.324Z,99472.66
2023-03-24T03:12:24.308Z,99467.25
2023-03-24T03:15:33.455Z,99459.50
2023-03-24T03:18:41.457Z,99450.28
2023-03-24T03:21:45.722Z,99449.25
2023-03-24T03:24:53.010Z,99437.09
2023-03-24T03:28:01.043Z,99425.72
2023-03-24T03:31:07.796Z,99415.13
2023-03-24T03:34:19.033Z,99407.16
2023-03-24T03:37:27.564Z,99401.31
2023-03-24T03:40:36.164Z,99405.66
2023-03-24T03:43:40.530Z,99398.84
2023-03-24T03:46:44.155Z,99383.25
2023-03-24T03:49:47.341Z,99384.91
2023-03-24T03:52:52.157Z,99377.16
2023-03-24T03:55:56.904Z,99368.44
2023-03-24T03:59:01.407Z,99354.66
2023-03-24T04:02:25.391Z,99368.03
2023-03-24T04:05:34.831Z,99364.38
2023-03-24T04:08:49.537Z,99359.22
2023-03-24T04:12:09.020Z,99361.06
2023-03-24T04:15:30.247Z,99357.56
2023-03-24T04:18:43.929Z,99352.84
2023-03-24T04:22:00.463Z,99356.34
2023-03-24T04:25:12.377Z,99351.81
2023-03-24T04:28:26.221Z,99354.19
2023-03-24T04:31:37.110Z,99346.44
2023-03-24T04:34:45.038Z,99339.56
2023-03-24T04:37:49.309Z,99341.84
2023-03-24T04:40:55.629Z,99337.44
2023-03-24T04:44:00.039Z,99325.66
2023-03-24T04:47:07.557Z,99325.78
2023-03-24T04:50:12.556Z,99315.19
2023-03-24T04:53:15.286Z,99308.41
2023-03-24T04:56:30.421Z,99308.88
2023-03-24T04:59:34.357Z,99305.22
2023-03-24T05:02:38.540Z,99293.13
2023-03-24T05:05:41.828Z,99300.94
2023-03-24T05:08:44.533Z,99296.53
2023-03-24T05:11:47.115Z,99296.97
2023-03-24T05:14:49.697Z,99289.06
2023-03-24T05:17:53.690Z,99280.59
2023-03-24T05:20:56.327Z,99284.00
2023-03-24T05:23:58.905Z,99279.75
2023-03-24T05:27:01.502Z,99279.00
2023-03-24T05:30:04.732Z,99280.19
2023-03-24T05:33:08.711Z,99288.88
2023-03-24T05:36:12.154Z,99290.03
2023-03-24T05:39:14.750Z,99292.81
2023-03-24T05:42:17.651Z,99291.31
2023-03-24T05:45:20.767Z,99286.00
2023-03-24T05:48:24.726Z,99277.84
2023-03-24T05:51:27.364Z,99283.28
2023-03-24T05:54:29.957Z,99276.81
2023-03-24T05:57:34.713Z,99272.53
2023-03-24T06:00:38.135Z,99274.66
2023-03-24T06:03:42.161Z,99262.75
2023-03-24T06:06:45.499Z,99259.38
2023-03-24T06:09:51.003Z,99256.50
2023-03-24T06:12:54.208Z,99255.56
2023-03-24T06:15:59.367Z,99251.09
2023-03-24T06:19:04.443Z,99246.63
2023-03-24T06:22:07.028Z,99241.97
2023-03-24T06:25:10.134Z,99238.53
2023-03-24T06:28:13.847Z,99233.03
2023-03-24T06:31:19.301Z,99236.75
2023-03-24T06:34:24.971Z,99245.78
2023-03-24T06:37:27.859Z,99244.59
2023-03-24T06:40:30.492Z,99251.94
2023-03-24T06:43:33.833Z,99249.06
2023-03-24T06:46:36.523Z,99263.41
2023-03-24T06:49:40.534Z,99258.81
2023-03-24T06:52:43.148Z,99269.38
2023-03-24T06:55:46.032Z,99275.09
2023-03-24T06:58:49.041Z,99283.69
2023-03-24T07:01:51.940Z,99289.00
2023-03-24T07:04:55.943Z,99289.53
2023-03-24T07:11:06.044Z,99283.69
2023-03-24T07:14:08.650Z,99296.56
2023-03-24T07:17:11.264Z,99286.88
2023-03-24T07:20:15.927Z,99291.25
2023-03-24T07:23:18.577Z,99298.31
2023-03-24T07:26:21.183Z,99299.16
2023-03-24T07:29:23.963Z,99310.38
2023-03-24T07:32:28.640Z,99349.50
2023-03-24T07:35:32.970Z,99355.00
2023-03-24T07:38:35.886Z,99347.78
2023-03-24T07:41:38.472Z,99365.19
2023-03-24T07:44:41.057Z,99364.53
2023-03-24T07:47:44.715Z,99366.38
2023-03-24T07:50:48.645Z,99371.81
2023-03-24T07:53:51.446Z,99358.41
2023-03-24T07:56:54.191Z,99362.66
2023-03-24T07:59:57.016Z,99372.78
2023-03-24T08:03:01.053Z,99386.41
2023-03-24T08:06:05.644Z,99378.56
2023-03-24T08:09:09.250Z,99389.38
2023-03-24T08:12:19.955Z,99395.66
2023-03-24T08:15:23.924Z,99408.84
2023-03-24T08:18:26.525Z,99409.69
2023-03-24T08:21:30.604Z,99411.59
2023-03-24T08:24:33.189Z,99413.72
2023-03-24T08:27:35.786Z,99428.53
2023-03-24T08:30:38.374Z,99430.09
2023-03-24T08:33:41.602Z,99436.69
2023-03-24T08:36:45.727Z,99443.81
2023-03-24T08:39:48.384Z,99453.59
2023-03-24T08:42:52.916Z,99465.00
2023-03-24T08:45:56.532Z,99459.88
2023-03-24T08:48:59.731Z,99467.66
2023-03-24T08:52:04.295Z,99466.13
2023-03-24T08:55:07.644Z,99483.06
2023-03-24T08:58:14.396Z,99475.69
2023-03-24T09:01:17.751Z,99477.44
2023-03-24T09:04:20.370Z,99482.63
2023-03-24T09:07:24.365Z,99476.25
2023-03-24T09:10:27.526Z,99481.69
2023-03-24T09:13:30.249Z,99488.09
2023-03-24T09:16:33.148Z,99492.75
2023-03-24T09:19:35.995Z,99506.41
2023-03-24T09:22:41.112Z,99501.28
2023-03-24T09:25:46.240Z,99499.47
2023-03-24T09:28:48.984Z,99503.69
2023-03-24T09:31:53.727Z,99507.75
2023-03-24T09:34:56.355Z,99517.97
2023-03-24T09:38:00.321Z,99513.19
2023-03-24T09:41:04.504Z,99535.59
2023-03-24T09:44:16.675Z,99530.53
2023-03-24T09:47:29.014Z,99532.53
2023-03-24T09:50:40.102Z,99538.84
2023-03-24T09:53:50.098Z,99552.66
2023-03-24T09:56:53.910Z,99554.63
2023-03-24T09:59:57.040Z,99557.72
2023-03-24T10:03:03.084Z,99558.56
2023-03-24T10:06:10.043Z,99562.28
2023-03-24T10:09:24.383Z,99568.84
2023-03-24T10:12:36.669Z,99578.69
2023-03-24T10:15:44.881Z,99569.00
2023-03-24T10:18:56.373Z,99569.41
2023-03-24T10:22:05.252Z,99565.19
2023-03-24T10:25:19.235Z,99573.56
2023-03-24T10:28:26.665Z,99566.88
2023-03-24T10:31:32.158Z,99576.00
2023-03-24T10:34:35.950Z,99582.88
2023-03-24T10:37:38.984Z,99570.56
2023-03-24T10:40:43.823Z,99568.22
2023-03-24T10:43:47.245Z,99582.50
2023-03-24T10:46:54.205Z,99586.75
2023-03-24T10:50:00.628Z,99577.97
2023-03-24T10:53:09.714Z,99576.03
2023-03-24T10:56:17.356Z,99570.47
2023-03-24T10:59:25.455Z,99579.22
2023-03-24T11:02:31.688Z,99587.38
2023-03-24T11:05:37.686Z,99590.75
2023-03-24T11:08:41.900Z,99588.03
2023-03-24T11:11:46.119Z,99590.44
2023-03-24T11:14:48.889Z,99592.09
2023-03-24T11:17:56.402Z,99606.88
2023-03-24T11:21:00.963Z,99627.53
2023-03-24T11:24:11.516Z,99618.34
2023-03-24T11:27:18.388Z,99618.22
2023-03-24T11:30:21.161Z,99635.06
2023-03-24T11:33:35.789Z,99628.78
2023-03-24T11:36:50.327Z,99635.56
2023-03-24T11:40:16.763Z,99633.38
2023-03-24T11:43:22.486Z,99621.97
2023-03-24T11:46:26.585Z,99627.47
2023-03-24T11:49:32.775Z,99624.97
2023-03-24T11:52:40.451Z,99630.94
2023-03-24T11:55:48.647Z,99638.25
2023-03-24T11:58:59.767Z,99634.97
2023-03-24T12:02:12.914Z,99630.56
2023-03-24T12:05:31.114Z,99639.69
2023-03-24T12:08:46.181Z,99627.06
2023-03-24T12:12:08.089Z,99624.47
2023-03-24T12:15:41.527Z,99623.84
2023-03-24T12:18:56.930Z,99621.16
2023-03-24T12:22:09.562Z,99633.91
2023-03-24T12:25:41.113Z,99626.81
2023-03-24T12:28:58.672Z,99629.72
2023-03-24T12:32:24.418Z,99620.75
2023-03-24T12:35:49.031Z,99629.66
2023-03-24T12:39:02.795Z,99614.22
2023-03-24T12:42:11.283Z,99619.09
2023-03-24T12:45:38.743Z,99635.94
2023-03-24T12:49:02.564Z,99614.97
2023-03-24T12:52:21.537Z,99624.03
2023-03-24T12:55:31.897Z,99615.34
2023-03-24T12:58:42.936Z,99617.28
2023-03-24T13:01:49.976Z,99618.75
2023-03-24T13:04:56.906Z,99629.31
2023-03-24T13:08:04.164Z,99632.22
2023-03-24T13:11:19.279Z,99624.88
2023-03-24T13:14:35.349Z,99637.25
2023-03-24T13:17:45.220Z,99631.88
2023-03-24T13:20:53.146Z,99621.66
2023-03-24T13:24:00.228Z,99624.19
2023-03-24T13:27:10.536Z,99624.88
2023-03-24T13:30:23.937Z,99629.63
2023-03-24T13:33:29.857Z,99625.50
2023-03-24T13:36:46.049Z,99634.94
2023-03-24T13:39:52.715Z,99628.00
2023-03-24T13:42:57.887Z,99626.78
2023-03-24T13:46:02.858Z,99630.78
2023-03-24T13:49:10.330Z,99624.56
2023-03-24T13:52:29.726Z,99638.97
2023-03-24T13:55:37.774Z,99631.38
2023-03-24T13:58:50.245Z,99621.84
2023-03-24T14:02:19.240Z,99638.00
2023-03-24T14:05:42.669Z,99631.44
2023-03-24T14:09:05.483Z,99645.00
2023-03-24T14:12:26.980Z,99629.25
2023-03-24T14:15:30.260Z,99614.91
2023-03-24T14:18:43.562Z,99624.16
2023-03-24T14:21:52.476Z,99626.09
2023-03-24T14:25:00.446Z,99621.50
2023-03-24T14:28:20.796Z,99631.09
2023-03-24T14:31:25.315Z,99624.63
2023-03-24T14:34:28.788Z,99629.56
2023-03-24T14:37:31.585Z,99619.72
2023-03-24T14:40:40.905Z,99620.22
2023-03-24T14:43:59.054Z,99621.13
2023-03-24T14:47:01.847Z,99621.13
2023-03-24T14:50:18.293Z,99633.19
2023-03-24T14:53:21.599Z,99619.25
2023-03-24T14:56:32.247Z,99635.69
2023-03-24T14:59:42.247Z,99625.69
2023-03-24T15:02:47.998Z,99629.84
2023-03-24T15:05:51.107Z,99640.53
2023-03-24T15:08:56.499Z,99625.16
2023-03-24T15:12:01.674Z,99621.25
2023-03-24T15:15:04.508Z,99619.38
2023-03-24T15:18:07.332Z,99616.59
2023-03-24T15:21:25.293Z,99624.66
2023-03-24T15:24:34.054Z,99628.53
2023-03-24T15:27:39.508Z,99622.47
2023-03-24T15:30:42.219Z,99632.66
2023-03-24T15:33:46.035Z,99635.56
2023-03-24T15:36:55.541Z,99635.97
2023-03-24T15:40:08.961Z,99631.84
2023-03-24T15:43:21.595Z,99631.03
2023-03-24T15:46:28.025Z,99625.19
2023-03-24T15:49:33.411Z,99629.03
2023-03-24T15:52:37.773Z,99624.09
2023-03-24T15:55:40.528Z,99632.84
2023-03-24T15:58:53.715Z,99628.78
2023-03-24T16:01:56.323Z,99624.28
2023-03-24T16:05:11.017Z,99619.53
2023-03-24T16:08:27.482Z,99616.50
2023-03-24T16:11:30.549Z,99622.31
2023-03-24T16:14:35.537Z,99630.75
2023-03-24T16:17:38.182Z,99624.69
2023-03-24T16:20:40.866Z,99626.38
2023-03-24T16:23:44.295Z,99625.53
2023-03-24T16:26:47.011Z,99618.94
2023-03-24T16:29:51.028Z,99620.41
2023-03-24T16:32:53.686Z,99618.97
2023-03-24T16:35:56.372Z,99625.88
2023-03-24T16:39:01.494Z,99629.94
2023-03-24T16:42:04.244Z,99639.56
2023-03-24T16:45:09.883Z,99626.41
2023-03-24T16:48:12.747Z,99634.53
2023-03-24T16:51:16.891Z,99633.25
2023-03-24T16:54:19.898Z,99640.25
2023-03-24T16:57:23.162Z,99641.38
2023-03-24T17:00:27.529Z,99637.25
2023-03-24T17:03:30.189Z,99646.13
2023-03-24T17:06:33.793Z,99644.84
2023-03-24T17:09:37.075Z,99650.84
2023-03-24T17:12:39.723Z,99655.31
2023-03-24T17:15:43.739Z,99653.09
2023-03-24T17:18:46.406Z,99653.84
2023-03-24T17:21:53.766Z,99663.00
2023-03-24T17:24:58.188Z,99651.47
2023-03-24T17:28:00.935Z,99654.66
2023-03-24T17:31:05.457Z,99667.25
2023-03-24T17:34:21.502Z,99675.00
2023-03-24T17:37:26.984Z,99673.72
2023-03-24T17:40:29.687Z,99669.94
2023-03-24T17:43:32.815Z,99676.16
2023-03-24T17:46:36.809Z,99671.19
2023-03-24T17:49:39.425Z,99671.03
2023-03-24T17:52:45.254Z,99675.47
2023-03-24T17:55:47.864Z,99678.03
2023-03-24T17:58:54.473Z,99685.19
2023-03-24T18:01:58.586Z,99679.50
2023-03-24T18:05:01.423Z,99681.59
2023-03-24T18:08:04.152Z,99688.19
2023-03-24T18:11:08.487Z,99698.94
2023-03-24T18:14:11.110Z,99697.00
2023-03-24T18:17:15.275Z,99700.88
2023-03-24T18:20:18.108Z,99703.84
2023-03-24T18:23:21.278Z,99708.00
2023-03-24T18:26:24.260Z,99719.75
2023-03-24T18:29:26.913Z,99717.94
2023-03-24T18:32:33.000Z,99720.13
2023-03-24T18:35:35.820Z,99723.47
2023-03-24T18:38:38.497Z,99732.84
2023-03-24T18:41:41.130Z,99727.91
2023-03-24T18:44:44.820Z,99730.50
2023-03-24T18:47:48.976Z,99729.63
2023-03-24T18:50:51.906Z,99721.91
2023-03-24T18:53:54.774Z,99729.31
2023-03-24T18:56:57.708Z,99723.72
2023-03-24T19:00:01.039Z,99723.72
2023-03-24T19:03:06.554Z,99724.09
2023-03-24T19:06:11.816Z,99726.56
2023-03-24T19:09:14.776Z,99730.81
2023-03-24T19:12:17.571Z,99727.34
2023-03-24T19:15:20.176Z,99735.75
2023-03-24T19:18:24.680Z,99732.44
2023-03-24T19:21:27.702Z,99733.38
2023-03-24T19:24:30.413Z,99736.22
2023-03-24T19:27:33.023Z,99740.97
2023-03-24T19:30:35.763Z,99733.56
2023-03-24T19:33:39.752Z,99725.78
2023-03-24T19:36:45.364Z,99722.53
2023-03-24T19:39:49.012Z,99718.25
2023-03-24T19:42:51.665Z,99715.25
2023-03-24T19:45:55.955Z,99707.94
2023-03-24T19:48:59.930Z,99713.09
2023-03-24T19:52:03.808Z,99707.44
2023-03-24T19:55:07.691Z,99712.69
2023-03-24T19:58:10.275Z,99715.09
2023-03-24T20:01:12.854Z,99715.25
2023-03-24T20:04:16.779Z,99712.16
2023-03-24T20:07:19.409Z,99704.38
2023-03-24T20:10:22.094Z,99718.25
2023-03-24T20:13:27.420Z,99719.16
2023-03-24T20:16:30.138Z,99720.56
2023-03-24T20:19:34.077Z,99712.41
2023-03-24T20:22:37.351Z,99716.88
2023-03-24T20:25:42.431Z,99716.63
2023-03-24T20:28:45.136Z,99715.69
2023-03-24T20:31:47.735Z,99717.13
2023-03-24T20:34:52.184Z,99719.44
2023-03-24T20:37:54.855Z,99724.81
2023-03-24T20:41:01.037Z,99729.53
2023-03-24T20:44:03.702Z,99722.06
2023-03-24T20:47:06.341Z,99724.97
2023-03-24T20:50:11.674Z,99712.94
2023-03-24T20:53:14.368Z,99716.31
2023-03-24T20:56:18.122Z,99719.59
2023-03-24T20:59:21.214Z,99712.50
2023-03-24T21:02:23.907Z,99715.22
2023-03-24T21:05:28.122Z,99707.13
2023-03-24T21:08:30.777Z,99712.94
2023-03-24T21:11:34.004Z,99709.84
2023-03-24T21:14:37.670Z,99703.53
2023-03-24T21:17:40.372Z,99698.72
2023-03-24T21:20:54.871Z,99689.03
2023-03-24T21:23:57.976Z,99689.84
2023-03-24T21:27:00.812Z,99701.13
2023-03-24T21:30:03.421Z,99704.91
2023-03-24T21:33:06.029Z,99702.50
2023-03-24T21:36:11.610Z,99708.50
2023-03-24T21:39:14.266Z,99699.94
2023-03-24T21:42:19.236Z,99697.03
2023-03-24T21:45:24.005Z,99690.84
2023-03-24T21:48:27.565Z,99690.69
2023-03-24T21:51:36.398Z,99694.19
2023-03-24T21:54:41.747Z,99682.69
2023-03-24T21:57:45.403Z,99678.81
2023-03-24T22:00:49.266Z,99686.41
2023-03-24T22:03:54.118Z,99682.69
2023-03-24T22:06:58.208Z,99688.84
2023-03-24T22:10:03.204Z,99681.88
2023-03-24T22:13:06.002Z,99682.03
2023-03-24T22:16:09.329Z,99677.09
2023-03-24T22:19:11.910Z,99679.75
2023-03-24T22:22:15.929Z,99678.03
2023-03-24T22:25:19.909Z,99683.84
2023-03-24T22:28:22.537Z,99685.94
2023-03-24T22:31:25.332Z,99680.09
2023-03-24T22:34:28.208Z,99670.03
2023-03-24T22:37:32.453Z,99668.84
2023-03-24T22:40:35.225Z,99670.34
2023-03-24T22:43:39.434Z,99667.72
2023-03-24T22:46:42.284Z,99665.03
2023-03-24T22:49:44.900Z,99657.63
2023-03-24T22:52:48.840Z,99648.63
2023-03-24T22:55:51.757Z,99652.13
2023-03-24T22:58:54.520Z,99658.31
2023-03-24T23:02:08.674Z,99663.88
2023-03-24T23:05:12.349Z,99652.41
2023-03-24T23:08:16.754Z,99659.00
2023-03-24T23:11:19.316Z,99650.34
2023-03-24T23:14:22.047Z,99665.50
2023-03-24T23:17:25.039Z,99655.00
2023-03-24T23:20:29.677Z,99643.19
2023-03-24T23:23:34.009Z,99643.53
2023-03-24T23:26:36.660Z,99651.41
2023-03-24T23:29:40.251Z,99641.47
2023-03-24T23:32:43.705Z,99641.13
2023-03-24T23:35:46.597Z,99640.88
2023-03-24T23:38:51.966Z,99641.47
2023-03-24T23:41:54.596Z,99637.88
2023-03-24T23:44:57.142Z,99638.75
2023-03-24T23:47:59.761Z,99639.19
2023-03-24T23:51:04.851Z,99639.50
2023-03-24T23:54:09.070Z,99644.84
2023-03-24T23:57:12.200Z,99646.53
